sensor_id;sensor_type;location;lat;lon;timestamp;pressure;altitude;pressure_sealevel;temperature;humidity
67109;BME280;54027;50.786;7.058;2022-12-18T00:01:37;102478.63;;;-6.42;89.07
67109;BME280;54027;50.786;7.058;2022-12-18T00:04:04;102478.47;;;-6.44;88.93
67109;BME280;54027;50.786;7.058;2022-12-18T00:06:31;102479.47;;;-6.42;88.86
67109;BME280;54027;50.786;7.058;2022-12-18T00:08:58;102476.47;;;-6.38;88.58
67109;BME280;54027;50.786;7.058;2022-12-18T00:11:27;102470.81;;;-6.35;88.21
67109;BME280;54027;50.786;7.058;2022-12-18T00:13:54;102474.22;;;-6.35;87.91
67109;BME280;54027;50.786;7.058;2022-12-18T00:16:22;102475.59;;;-6.38;88.41
67109;BME280;54027;50.786;7.058;2022-12-18T00:18:50;102474.72;;;-6.39;87.83
67109;BME280;54027;50.786;7.058;2022-12-18T00:21:16;102479.75;;;-6.39;87.65
67109;BME280;54027;50.786;7.058;2022-12-18T00:23:43;102483.75;;;-6.41;87.57
67109;BME280;54027;50.786;7.058;2022-12-18T00:26:24;102484.03;;;-6.38;87.52
67109;BME280;54027;50.786;7.058;2022-12-18T00:28:51;102492.19;;;-6.40;87.98
67109;BME280;54027;50.786;7.058;2022-12-18T00:31:19;102488.69;;;-6.42;87.43
67109;BME280;54027;50.786;7.058;2022-12-18T00:33:45;102481.13;;;-6.42;87.61
67109;BME280;54027;50.786;7.058;2022-12-18T00:36:14;102485.53;;;-6.40;87.50
67109;BME280;54027;50.786;7.058;2022-12-18T00:38:39;102485.91;;;-6.45;87.65
67109;BME280;54027;50.786;7.058;2022-12-18T00:41:06;102490.41;;;-6.51;87.72
67109;BME280;54027;50.786;7.058;2022-12-18T00:43:33;102492.50;;;-6.56;88.00
67109;BME280;54027;50.786;7.058;2022-12-18T00:45:59;102501.56;;;-6.58;87.82
67109;BME280;54027;50.786;7.058;2022-12-18T00:48:24;102497.75;;;-6.63;87.62
67109;BME280;54027;50.786;7.058;2022-12-18T00:50:50;102500.88;;;-6.66;87.42
67109;BME280;54027;50.786;7.058;2022-12-18T00:53:16;102506.94;;;-6.64;87.70
67109;BME280;54027;50.786;7.058;2022-12-18T00:55:42;102500.75;;;-6.67;87.76
67109;BME280;54027;50.786;7.058;2022-12-18T00:58:09;102499.13;;;-6.67;88.48
67109;BME280;54027;50.786;7.058;2022-12-18T01:00:35;102489.94;;;-6.66;87.84
67109;BME280;54027;50.786;7.058;2022-12-18T01:03:00;102488.91;;;-6.68;88.42
67109;BME280;54027;50.786;7.058;2022-12-18T01:05:26;102478.59;;;-6.71;87.79
67109;BME280;54027;50.786;7.058;2022-12-18T01:07:52;102485.88;;;-6.74;88.09
67109;BME280;54027;50.786;7.058;2022-12-18T01:10:17;102485.75;;;-6.76;87.70
67109;BME280;54027;50.786;7.058;2022-12-18T01:12:43;102483.44;;;-6.83;87.97
67109;BME280;54027;50.786;7.058;2022-12-18T01:15:10;102482.06;;;-6.79;88.58
67109;BME280;54027;50.786;7.058;2022-12-18T01:17:36;102484.94;;;-6.85;88.11
67109;BME280;54027;50.786;7.058;2022-12-18T01:20:02;102485.56;;;-6.87;88.00
67109;BME280;54027;50.786;7.058;2022-12-18T01:22:28;102485.13;;;-6.92;88.95
67109;BME280;54027;50.786;7.058;2022-12-18T01:24:53;102490.78;;;-6.94;88.48
67109;BME280;54027;50.786;7.058;2022-12-18T01:27:19;102484.13;;;-6.94;89.05
67109;BME280;54027;50.786;7.058;2022-12-18T01:29:44;102487.53;;;-6.93;88.63
67109;BME280;54027;50.786;7.058;2022-12-18T01:32:10;102483.13;;;-6.96;88.93
67109;BME280;54027;50.786;7.058;2022-12-18T01:34:36;102472.81;;;-6.99;88.88
67109;BME280;54027;50.786;7.058;2022-12-18T01:37:03;102472.56;;;-7.02;89.31
67109;BME280;54027;50.786;7.058;2022-12-18T01:39:28;102476.41;;;-7.05;89.61
67109;BME280;54027;50.786;7.058;2022-12-18T01:41:54;102483.06;;;-7.06;89.79
67109;BME280;54027;50.786;7.058;2022-12-18T01:44:58;102493.41;;;-7.03;89.77
67109;BME280;54027;50.786;7.058;2022-12-18T01:47:39;102484.22;;;-7.02;89.44
67109;BME280;54027;50.786;7.058;2022-12-18T01:50:19;102485.38;;;-6.99;89.55
67109;BME280;54027;50.786;7.058;2022-12-18T01:55:36;102485.13;;;-7.02;89.54
67109;BME280;54027;50.786;7.058;2022-12-18T01:58:04;102481.72;;;-7.02;89.30
67109;BME280;54027;50.786;7.058;2022-12-18T02:00:30;102479.94;;;-7.03;89.61
67109;BME280;54027;50.786;7.058;2022-12-18T02:02:56;102479.81;;;-7.05;89.44
67109;BME280;54027;50.786;7.058;2022-12-18T02:06:00;102477.94;;;-7.07;89.89
67109;BME280;54027;50.786;7.058;2022-12-18T02:08:43;102473.63;;;-7.08;89.37
67109;BME280;54027;50.786;7.058;2022-12-18T02:11:18;102470.84;;;-7.11;89.52
67109;BME280;54027;50.786;7.058;2022-12-18T02:13:55;102474.72;;;-7.15;89.48
67109;BME280;54027;50.786;7.058;2022-12-18T02:16:59;102475.44;;;-7.16;90.28
67109;BME280;54027;50.786;7.058;2022-12-18T02:22:30;102469.97;;;-7.12;90.64
67109;BME280;54027;50.786;7.058;2022-12-18T02:27:57;102465.28;;;-6.99;90.17
67109;BME280;54027;50.786;7.058;2022-12-18T02:30:26;102468.06;;;-6.86;90.49
67109;BME280;54027;50.786;7.058;2022-12-18T02:32:52;102468.63;;;-6.80;89.83
67109;BME280;54027;50.786;7.058;2022-12-18T02:35:22;102475.97;;;-6.63;90.06
67109;BME280;54027;50.786;7.058;2022-12-18T02:37:49;102482.44;;;-6.56;88.82
67109;BME280;54027;50.786;7.058;2022-12-18T02:40:16;102478.66;;;-6.61;89.32
67109;BME280;54027;50.786;7.058;2022-12-18T02:42:42;102478.28;;;-6.55;88.85
67109;BME280;54027;50.786;7.058;2022-12-18T02:45:08;102465.34;;;-6.60;89.23
67109;BME280;54027;50.786;7.058;2022-12-18T02:47:37;102468.31;;;-6.64;88.65
67109;BME280;54027;50.786;7.058;2022-12-18T02:50:34;102467.59;;;-6.63;89.31
67109;BME280;54027;50.786;7.058;2022-12-18T02:53:26;102470.50;;;-6.59;89.15
67109;BME280;54027;50.786;7.058;2022-12-18T02:55:59;102470.75;;;-6.55;89.13
67109;BME280;54027;50.786;7.058;2022-12-18T02:58:35;102465.50;;;-6.48;88.51
67109;BME280;54027;50.786;7.058;2022-12-18T03:01:18;102457.56;;;-6.53;88.64
67109;BME280;54027;50.786;7.058;2022-12-18T03:03:50;102461.22;;;-6.49;88.31
67109;BME280;54027;50.786;7.058;2022-12-18T03:06:26;102460.47;;;-6.48;88.72
67109;BME280;54027;50.786;7.058;2022-12-18T03:08:57;102469.41;;;-6.42;88.77
67109;BME280;54027;50.786;7.058;2022-12-18T03:11:25;102469.56;;;-6.40;88.39
67109;BME280;54027;50.786;7.058;2022-12-18T03:14:13;102477.59;;;-6.44;88.53
67109;BME280;54027;50.786;7.058;2022-12-18T03:16:42;102467.13;;;-6.49;88.14
67109;BME280;54027;50.786;7.058;2022-12-18T03:19:14;102456.19;;;-6.49;88.78
67109;BME280;54027;50.786;7.058;2022-12-18T03:21:50;102465.25;;;-6.51;88.59
67109;BME280;54027;50.786;7.058;2022-12-18T03:24:18;102455.81;;;-6.54;88.38
67109;BME280;54027;50.786;7.058;2022-12-18T03:26:47;102451.53;;;-6.55;88.62
67109;BME280;54027;50.786;7.058;2022-12-18T03:29:25;102439.06;;;-6.53;89.19
67109;BME280;54027;50.786;7.058;2022-12-18T03:32:00;102445.13;;;-6.51;89.14
67109;BME280;54027;50.786;7.058;2022-12-18T03:34:31;102440.09;;;-6.51;88.77
67109;BME280;54027;50.786;7.058;2022-12-18T03:36:57;102448.53;;;-6.51;88.42
67109;BME280;54027;50.786;7.058;2022-12-18T03:39:24;102441.84;;;-6.50;88.48
67109;BME280;54027;50.786;7.058;2022-12-18T03:42:23;102437.19;;;-6.56;88.73
67109;BME280;54027;50.786;7.058;2022-12-18T03:44:59;102436.03;;;-6.60;88.16
67109;BME280;54027;50.786;7.058;2022-12-18T03:47:32;102435.63;;;-6.64;88.28
67109;BME280;54027;50.786;7.058;2022-12-18T03:50:12;102442.28;;;-6.65;88.37
67109;BME280;54027;50.786;7.058;2022-12-18T03:52:57;102437.78;;;-6.59;88.68
67109;BME280;54027;50.786;7.058;2022-12-18T03:55:25;102429.09;;;-6.62;88.09
67109;BME280;54027;50.786;7.058;2022-12-18T03:57:53;102437.53;;;-6.62;88.62
67109;BME280;54027;50.786;7.058;2022-12-18T04:00:19;102430.63;;;-6.64;88.01
67109;BME280;54027;50.786;7.058;2022-12-18T04:02:52;102430.47;;;-6.66;88.22
67109;BME280;54027;50.786;7.058;2022-12-18T04:05:19;102428.31;;;-6.71;88.20
67109;BME280;54027;50.786;7.058;2022-12-18T04:07:47;102438.25;;;-6.73;88.57
67109;BME280;54027;50.786;7.058;2022-12-18T04:10:14;102434.56;;;-6.76;88.72
67109;BME280;54027;50.786;7.058;2022-12-18T04:12:41;102433.69;;;-6.77;88.77
67109;BME280;54027;50.786;7.058;2022-12-18T04:15:07;102431.06;;;-6.78;88.65
67109;BME280;54027;50.786;7.058;2022-12-18T04:17:33;102424.53;;;-6.76;88.41
67109;BME280;54027;50.786;7.058;2022-12-18T04:19:58;102420.38;;;-6.76;89.00
67109;BME280;54027;50.786;7.058;2022-12-18T04:22:24;102417.72;;;-6.77;88.92
67109;BME280;54027;50.786;7.058;2022-12-18T04:24:49;102422.63;;;-6.79;88.43
67109;BME280;54027;50.786;7.058;2022-12-18T04:27:15;102424.88;;;-6.82;88.75
67109;BME280;54027;50.786;7.058;2022-12-18T04:29:40;102422.38;;;-6.82;88.73
67109;BME280;54027;50.786;7.058;2022-12-18T04:32:06;102419.22;;;-6.79;89.14
67109;BME280;54027;50.786;7.058;2022-12-18T04:34:32;102422.63;;;-6.79;88.85
67109;BME280;54027;50.786;7.058;2022-12-18T04:36:57;102422.91;;;-6.76;88.39
67109;BME280;54027;50.786;7.058;2022-12-18T04:39:24;102429.97;;;-6.72;88.23
67109;BME280;54027;50.786;7.058;2022-12-18T04:41:49;102423.63;;;-6.77;88.44
67109;BME280;54027;50.786;7.058;2022-12-18T04:44:15;102421.75;;;-6.79;88.22
67109;BME280;54027;50.786;7.058;2022-12-18T04:46:40;102422.63;;;-6.79;88.25
67109;BME280;54027;50.786;7.058;2022-12-18T04:49:05;102427.78;;;-6.77;88.75
67109;BME280;54027;50.786;7.058;2022-12-18T04:51:31;102423.00;;;-6.74;88.61
67109;BME280;54027;50.786;7.058;2022-12-18T04:53:56;102427.31;;;-6.73;87.74
67109;BME280;54027;50.786;7.058;2022-12-18T04:56:22;102425.06;;;-6.70;87.85
67109;BME280;54027;50.786;7.058;2022-12-18T04:58:47;102424.44;;;-6.68;88.13
67109;BME280;54027;50.786;7.058;2022-12-18T05:01:15;102429.00;;;-6.64;87.94
67109;BME280;54027;50.786;7.058;2022-12-18T05:03:41;102422.81;;;-6.67;88.32
67109;BME280;54027;50.786;7.058;2022-12-18T05:06:07;102423.19;;;-6.63;87.90
67109;BME280;54027;50.786;7.058;2022-12-18T05:08:32;102414.16;;;-6.61;88.15
67109;BME280;54027;50.786;7.058;2022-12-18T05:11:03;102411.66;;;-6.61;88.06
67109;BME280;54027;50.786;7.058;2022-12-18T05:13:29;102405.09;;;-6.59;87.82
67109;BME280;54027;50.786;7.058;2022-12-18T05:15:55;102401.72;;;-6.59;87.70
67109;BME280;54027;50.786;7.058;2022-12-18T05:18:21;102403.22;;;-6.61;87.52
67109;BME280;54027;50.786;7.058;2022-12-18T05:20:47;102393.63;;;-6.65;87.22
67109;BME280;54027;50.786;7.058;2022-12-18T05:23:12;102399.44;;;-6.66;88.16
67109;BME280;54027;50.786;7.058;2022-12-18T05:25:38;102396.66;;;-6.69;87.23
67109;BME280;54027;50.786;7.058;2022-12-18T05:28:03;102398.41;;;-6.68;87.86
67109;BME280;54027;50.786;7.058;2022-12-18T05:30:29;102402.44;;;-6.70;88.06
67109;BME280;54027;50.786;7.058;2022-12-18T05:32:54;102403.16;;;-6.71;88.03
67109;BME280;54027;50.786;7.058;2022-12-18T05:35:20;102402.03;;;-6.75;87.77
67109;BME280;54027;50.786;7.058;2022-12-18T05:37:45;102401.16;;;-6.75;87.91
67109;BME280;54027;50.786;7.058;2022-12-18T05:40:11;102406.94;;;-6.76;87.40
67109;BME280;54027;50.786;7.058;2022-12-18T05:42:37;102414.81;;;-6.82;87.58
67109;BME280;54027;50.786;7.058;2022-12-18T05:45:03;102418.44;;;-6.88;88.05
67109;BME280;54027;50.786;7.058;2022-12-18T05:47:28;102413.75;;;-6.94;87.65
67109;BME280;54027;50.786;7.058;2022-12-18T05:49:54;102419.91;;;-7.00;88.01
67109;BME280;54027;50.786;7.058;2022-12-18T05:52:20;102425.53;;;-7.03;88.37
67109;BME280;54027;50.786;7.058;2022-12-18T05:54:45;102425.44;;;-7.04;88.63
67109;BME280;54027;50.786;7.058;2022-12-18T05:57:11;102436.50;;;-7.02;88.42
67109;BME280;54027;50.786;7.058;2022-12-18T05:59:36;102435.75;;;-7.01;88.67
67109;BME280;54027;50.786;7.058;2022-12-18T06:02:02;102443.28;;;-7.01;88.32
67109;BME280;54027;50.786;7.058;2022-12-18T06:04:30;102442.25;;;-7.03;88.75
67109;BME280;54027;50.786;7.058;2022-12-18T06:06:56;102453.81;;;-7.05;88.50
67109;BME280;54027;50.786;7.058;2022-12-18T06:09:21;102452.66;;;-7.09;88.35
67109;BME280;54027;50.786;7.058;2022-12-18T06:11:47;102460.34;;;-7.07;89.00
67109;BME280;54027;50.786;7.058;2022-12-18T06:14:12;102467.88;;;-7.07;88.73
67109;BME280;54027;50.786;7.058;2022-12-18T06:16:38;102468.63;;;-7.08;88.83
67109;BME280;54027;50.786;7.058;2022-12-18T06:19:05;102476.00;;;-7.10;88.09
67109;BME280;54027;50.786;7.058;2022-12-18T06:21:31;102465.22;;;-7.09;88.65
67109;BME280;54027;50.786;7.058;2022-12-18T06:23:57;102465.22;;;-7.09;88.66
67109;BME280;54027;50.786;7.058;2022-12-18T06:26:22;102470.66;;;-7.04;88.39
67109;BME280;54027;50.786;7.058;2022-12-18T06:28:48;102474.91;;;-7.03;88.72
67109;BME280;54027;50.786;7.058;2022-12-18T06:31:13;102477.19;;;-6.96;89.00
67109;BME280;54027;50.786;7.058;2022-12-18T06:33:39;102473.72;;;-6.88;89.32
67109;BME280;54027;50.786;7.058;2022-12-18T06:36:15;102463.31;;;-6.83;88.90
67109;BME280;54027;50.786;7.058;2022-12-18T06:38:43;102462.69;;;-6.80;88.90
67109;BME280;54027;50.786;7.058;2022-12-18T06:41:14;102460.34;;;-6.79;88.34
67109;BME280;54027;50.786;7.058;2022-12-18T06:43:40;102456.19;;;-6.78;88.29
67109;BME280;54027;50.786;7.058;2022-12-18T06:46:06;102458.72;;;-6.78;88.77
67109;BME280;54027;50.786;7.058;2022-12-18T06:48:32;102461.97;;;-6.79;88.88
67109;BME280;54027;50.786;7.058;2022-12-18T06:50:57;102466.09;;;-6.80;88.40
67109;BME280;54027;50.786;7.058;2022-12-18T06:53:23;102464.91;;;-6.75;88.51
67109;BME280;54027;50.786;7.058;2022-12-18T06:55:49;102460.72;;;-6.74;88.54
67109;BME280;54027;50.786;7.058;2022-12-18T06:58:14;102454.06;;;-6.74;88.36
67109;BME280;54027;50.786;7.058;2022-12-18T07:00:39;102456.31;;;-6.77;88.07
67109;BME280;54027;50.786;7.058;2022-12-18T07:03:05;102462.22;;;-6.76;88.33
67109;BME280;54027;50.786;7.058;2022-12-18T07:05:30;102458.81;;;-6.77;87.88
67109;BME280;54027;50.786;7.058;2022-12-18T07:07:56;102459.88;;;-6.75;88.15
67109;BME280;54027;50.786;7.058;2022-12-18T07:10:21;102457.94;;;-6.77;88.26
67109;BME280;54027;50.786;7.058;2022-12-18T07:12:47;102454.56;;;-6.78;87.76
67109;BME280;54027;50.786;7.058;2022-12-18T07:15:12;102456.94;;;-6.79;88.48
67109;BME280;54027;50.786;7.058;2022-12-18T07:17:38;102463.31;;;-6.83;88.15
67109;BME280;54027;50.786;7.058;2022-12-18T07:20:03;102465.84;;;-6.83;88.21
67109;BME280;54027;50.786;7.058;2022-12-18T07:22:29;102462.69;;;-6.80;87.50
67109;BME280;54027;50.786;7.058;2022-12-18T07:24:54;102462.59;;;-6.82;88.63
67109;BME280;54027;50.786;7.058;2022-12-18T07:27:20;102455.56;;;-6.76;87.98
67109;BME280;54027;50.786;7.058;2022-12-18T07:29:46;102456.09;;;-6.70;88.70
67109;BME280;54027;50.786;7.058;2022-12-18T07:32:11;102459.00;;;-6.65;88.59
67109;BME280;54027;50.786;7.058;2022-12-18T07:34:37;102456.91;;;-6.61;88.52
67109;BME280;54027;50.786;7.058;2022-12-18T07:37:02;102455.19;;;-6.51;87.70
67109;BME280;54027;50.786;7.058;2022-12-18T07:39:28;102451.69;;;-6.43;87.65
67109;BME280;54027;50.786;7.058;2022-12-18T07:41:53;102456.84;;;-6.42;87.84
67109;BME280;54027;50.786;7.058;2022-12-18T07:44:38;102447.31;;;-6.36;87.11
67109;BME280;54027;50.786;7.058;2022-12-18T07:47:04;102440.16;;;-6.31;87.16
67109;BME280;54027;50.786;7.058;2022-12-18T07:49:29;102441.44;;;-6.26;87.13
67109;BME280;54027;50.786;7.058;2022-12-18T07:51:56;102435.03;;;-6.23;87.10
67109;BME280;54027;50.786;7.058;2022-12-18T07:54:23;102442.09;;;-6.19;86.90
67109;BME280;54027;50.786;7.058;2022-12-18T07:56:50;102443.63;;;-6.11;86.83
67109;BME280;54027;50.786;7.058;2022-12-18T07:59:16;102441.63;;;-6.05;86.44
67109;BME280;54027;50.786;7.058;2022-12-18T08:01:41;102437.09;;;-5.98;86.51
67109;BME280;54027;50.786;7.058;2022-12-18T08:04:06;102431.31;;;-5.97;86.06
67109;BME280;54027;50.786;7.058;2022-12-18T08:06:32;102433.94;;;-5.96;86.27
67109;BME280;54027;50.786;7.058;2022-12-18T08:08:57;102423.50;;;-5.90;85.93
67109;BME280;54027;50.786;7.058;2022-12-18T08:11:25;102419.72;;;-5.85;86.10
67109;BME280;54027;50.786;7.058;2022-12-18T08:13:51;102418.34;;;-5.82;86.13
67109;BME280;54027;50.786;7.058;2022-12-18T08:16:17;102406.91;;;-5.78;85.56
67109;BME280;54027;50.786;7.058;2022-12-18T08:18:43;102405.53;;;-5.75;85.53
67109;BME280;54027;50.786;7.058;2022-12-18T08:21:14;102400.09;;;-5.69;85.35
67109;BME280;54027;50.786;7.058;2022-12-18T08:23:40;102397.09;;;-5.65;84.89
67109;BME280;54027;50.786;7.058;2022-12-18T08:26:06;102394.94;;;-5.61;85.18
67109;BME280;54027;50.786;7.058;2022-12-18T08:28:31;102394.31;;;-5.58;85.00
67109;BME280;54027;50.786;7.058;2022-12-18T08:30:57;102397.31;;;-5.52;85.00
67109;BME280;54027;50.786;7.058;2022-12-18T08:33:22;102395.19;;;-5.48;85.23
67109;BME280;54027;50.786;7.058;2022-12-18T08:35:48;102395.69;;;-5.41;84.67
67109;BME280;54027;50.786;7.058;2022-12-18T08:38:14;102388.72;;;-5.34;84.51
67109;BME280;54027;50.786;7.058;2022-12-18T08:40:39;102384.81;;;-5.30;84.45
67109;BME280;54027;50.786;7.058;2022-12-18T08:43:05;102379.28;;;-5.26;84.23
67109;BME280;54027;50.786;7.058;2022-12-18T08:45:49;102383.69;;;-5.24;84.24
67109;BME280;54027;50.786;7.058;2022-12-18T08:48:14;102394.13;;;-5.19;84.20
67109;BME280;54027;50.786;7.058;2022-12-18T08:50:39;102391.19;;;-5.14;83.79
67109;BME280;54027;50.786;7.058;2022-12-18T08:53:05;102390.69;;;-5.10;83.89
67109;BME280;54027;50.786;7.058;2022-12-18T08:55:30;102390.53;;;-5.01;83.57
67109;BME280;54027;50.786;7.058;2022-12-18T08:57:56;102384.34;;;-4.95;83.69
67109;BME280;54027;50.786;7.058;2022-12-18T09:00:21;102375.75;;;-4.86;83.48
67109;BME280;54027;50.786;7.058;2022-12-18T09:02:47;102373.69;;;-4.80;83.41
67109;BME280;54027;50.786;7.058;2022-12-18T09:05:12;102378.59;;;-4.72;82.65
67109;BME280;54027;50.786;7.058;2022-12-18T09:07:38;102382.56;;;-4.64;82.87
67109;BME280;54027;50.786;7.058;2022-12-18T09:10:04;102376.56;;;-4.54;82.35
67109;BME280;54027;50.786;7.058;2022-12-18T09:12:29;102372.00;;;-4.48;82.51
67109;BME280;54027;50.786;7.058;2022-12-18T09:14:55;102383.69;;;-4.39;82.31
67109;BME280;54027;50.786;7.058;2022-12-18T09:17:21;102372.19;;;-4.35;82.31
67109;BME280;54027;50.786;7.058;2022-12-18T09:19:47;102372.66;;;-4.29;82.22
67109;BME280;54027;50.786;7.058;2022-12-18T09:22:12;102378.81;;;-4.25;82.09
67109;BME280;54027;50.786;7.058;2022-12-18T09:24:38;102373.88;;;-4.24;82.08
67109;BME280;54027;50.786;7.058;2022-12-18T09:27:03;102382.91;;;-4.16;82.20
67109;BME280;54027;50.786;7.058;2022-12-18T09:29:29;102372.38;;;-4.10;81.79
67109;BME280;54027;50.786;7.058;2022-12-18T09:31:54;102362.88;;;-4.03;81.57
67109;BME280;54027;50.786;7.058;2022-12-18T09:34:20;102364.44;;;-3.93;81.50
67109;BME280;54027;50.786;7.058;2022-12-18T09:36:50;102361.06;;;-3.82;80.99
67109;BME280;54027;50.786;7.058;2022-12-18T09:39:15;102351.13;;;-3.69;80.82
67109;BME280;54027;50.786;7.058;2022-12-18T09:41:51;102344.31;;;-3.58;80.28
67109;BME280;54027;50.786;7.058;2022-12-18T09:47:01;102327.72;;;-3.43;80.26
67109;BME280;54027;50.786;7.058;2022-12-18T09:49:30;102339.41;;;-3.34;79.98
67109;BME280;54027;50.786;7.058;2022-12-18T09:54:53;102325.09;;;-3.10;79.12
67109;BME280;54027;50.786;7.058;2022-12-18T09:57:19;102325.06;;;-2.98;78.63
67109;BME280;54027;50.786;7.058;2022-12-18T09:59:54;102318.34;;;-2.86;78.32
67109;BME280;54027;50.786;7.058;2022-12-18T10:02:23;102317.09;;;-2.80;78.57
67109;BME280;54027;50.786;7.058;2022-12-18T10:07:46;102307.41;;;-2.62;77.81
67109;BME280;54027;50.786;7.058;2022-12-18T10:20:45;102299.53;;;-2.29;76.15
67109;BME280;54027;50.786;7.058;2022-12-18T10:28:24;102272.03;;;-2.11;75.62
67109;BME280;54027;50.786;7.058;2022-12-18T10:30:50;102276.63;;;-2.06;76.13
67109;BME280;54027;50.786;7.058;2022-12-18T10:33:18;102282.97;;;-1.99;75.69
67109;BME280;54027;50.786;7.058;2022-12-18T10:35:44;102280.28;;;-1.89;75.88
67109;BME280;54027;50.786;7.058;2022-12-18T10:40:56;102288.00;;;-1.74;74.60
67109;BME280;54027;50.786;7.058;2022-12-18T10:43:29;102276.50;;;-1.69;74.80
67109;BME280;54027;50.786;7.058;2022-12-18T10:48:35;102271.81;;;-1.63;74.24
67109;BME280;54027;50.786;7.058;2022-12-18T10:51:02;102271.72;;;-1.65;73.82
67109;BME280;54027;50.786;7.058;2022-12-18T10:53:30;102266.19;;;-1.59;74.29
67109;BME280;54027;50.786;7.058;2022-12-18T10:56:02;102260.13;;;-1.61;73.47
67109;BME280;54027;50.786;7.058;2022-12-18T10:58:30;102265.69;;;-1.54;73.50
67109;BME280;54027;50.786;7.058;2022-12-18T11:01:17;102272.03;;;-1.47;73.79
67109;BME280;54027;50.786;7.058;2022-12-18T11:06:21;102266.84;;;-1.35;73.37
67109;BME280;54027;50.786;7.058;2022-12-18T11:09:21;102247.66;;;-1.32;72.79
67109;BME280;54027;50.786;7.058;2022-12-18T11:14:49;102246.06;;;-1.30;72.58
67109;BME280;54027;50.786;7.058;2022-12-18T11:17:29;102237.75;;;-1.27;72.08
67109;BME280;54027;50.786;7.058;2022-12-18T11:22:54;102247.66;;;-1.32;72.72
67109;BME280;54027;50.786;7.058;2022-12-18T11:25:21;102250.44;;;-1.27;73.06
67109;BME280;54027;50.786;7.058;2022-12-18T11:27:52;102253.09;;;-1.26;72.59
67109;BME280;54027;50.786;7.058;2022-12-18T11:32:47;102242.94;;;-1.26;72.80
67109;BME280;54027;50.786;7.058;2022-12-18T11:35:37;102235.91;;;-1.30;72.43
67109;BME280;54027;50.786;7.058;2022-12-18T11:38:34;102233.19;;;-1.33;72.34
67109;BME280;54027;50.786;7.058;2022-12-18T11:44:35;102237.19;;;-1.23;72.46
67109;BME280;54027;50.786;7.058;2022-12-18T11:47:56;102228.50;;;-1.27;72.38
67109;BME280;54027;50.786;7.058;2022-12-18T11:49:56;102222.03;;;-1.22;71.87
67109;BME280;54027;50.786;7.058;2022-12-18T11:52:36;102216.19;;;-1.21;72.49
67109;BME280;54027;50.786;7.058;2022-12-18T12:00:21;102196.19;;;-1.16;72.44
67109;BME280;54027;50.786;7.058;2022-12-18T12:06:02;102186.66;;;-1.20;72.72
67109;BME280;54027;50.786;7.058;2022-12-18T12:16:53;102178.13;;;-1.08;72.89
67109;BME280;54027;50.786;7.058;2022-12-18T12:30:20;102165.78;;;-1.02;72.51
67109;BME280;54027;50.786;7.058;2022-12-18T12:35:47;102156.00;;;-0.96;72.90
67109;BME280;54027;50.786;7.058;2022-12-18T12:38:24;102145.84;;;-0.96;72.80
67109;BME280;54027;50.786;7.058;2022-12-18T12:41:08;102146.53;;;-0.98;72.51
67109;BME280;54027;50.786;7.058;2022-12-18T12:43:57;102150.06;;;-0.96;72.90
67109;BME280;54027;50.786;7.058;2022-12-18T12:46:24;102155.81;;;-0.99;72.42
67109;BME280;54027;50.786;7.058;2022-12-18T12:49:05;102160.41;;;-0.93;72.27
67109;BME280;54027;50.786;7.058;2022-12-18T12:51:38;102160.59;;;-0.90;72.75
67109;BME280;54027;50.786;7.058;2022-12-18T12:54:14;102155.88;;;-0.84;72.13
67109;BME280;54027;50.786;7.058;2022-12-18T12:57:06;102153.59;;;-0.79;71.41
67109;BME280;54027;50.786;7.058;2022-12-18T12:59:56;102154.38;;;-0.80;71.67
67109;BME280;54027;50.786;7.058;2022-12-18T13:08:12;102142.50;;;-0.67;71.52
67109;BME280;54027;50.786;7.058;2022-12-18T13:10:47;102142.34;;;-0.70;70.99
67109;BME280;54027;50.786;7.058;2022-12-18T13:13:14;102125.34;;;-0.71;71.24
67109;BME280;54027;50.786;7.058;2022-12-18T13:21:01;102136.91;;;-0.76;70.60
67109;BME280;54027;50.786;7.058;2022-12-18T13:23:53;102126.75;;;-0.76;71.34
67109;BME280;54027;50.786;7.058;2022-12-18T13:28:51;102130.16;;;-0.75;70.79
67109;BME280;54027;50.786;7.058;2022-12-18T13:34:16;102130.56;;;-0.82;70.93
67109;BME280;54027;50.786;7.058;2022-12-18T13:36:41;102126.19;;;-0.85;70.94
67109;BME280;54027;50.786;7.058;2022-12-18T13:41:38;102125.59;;;-0.81;71.07
67109;BME280;54027;50.786;7.058;2022-12-18T13:46:51;102131.16;;;-0.86;71.43
67109;BME280;54027;50.786;7.058;2022-12-18T13:49:28;102126.91;;;-0.87;71.52
67109;BME280;54027;50.786;7.058;2022-12-18T13:52:00;102121.81;;;-0.87;71.48
67109;BME280;54027;50.786;7.058;2022-12-18T13:54:37;102127.50;;;-0.91;72.45
67109;BME280;54027;50.786;7.058;2022-12-18T13:57:23;102119.69;;;-0.95;71.96
67109;BME280;54027;50.786;7.058;2022-12-18T13:59:50;102116.38;;;-0.93;72.41
67109;BME280;54027;50.786;7.058;2022-12-18T14:02:20;102125.53;;;-0.96;72.17
67109;BME280;54027;50.786;7.058;2022-12-18T14:04:46;102130.38;;;-1.00;71.85
67109;BME280;54027;50.786;7.058;2022-12-18T14:07:21;102124.41;;;-1.01;72.30
67109;BME280;54027;50.786;7.058;2022-12-18T14:09:50;102135.94;;;-1.06;72.61
67109;BME280;54027;50.786;7.058;2022-12-18T14:12:22;102136.66;;;-1.08;72.90
67109;BME280;54027;50.786;7.058;2022-12-18T14:15:34;102123.78;;;-1.11;73.01
67109;BME280;54027;50.786;7.058;2022-12-18T14:18:03;102120.19;;;-1.15;73.25
67109;BME280;54027;50.786;7.058;2022-12-18T14:20:41;102119.13;;;-1.18;73.50
67109;BME280;54027;50.786;7.058;2022-12-18T14:23:39;102109.47;;;-1.24;73.64
67109;BME280;54027;50.786;7.058;2022-12-18T14:26:26;102105.28;;;-1.23;73.23
67109;BME280;54027;50.786;7.058;2022-12-18T14:28:58;102105.28;;;-1.23;73.17
67109;BME280;54027;50.786;7.058;2022-12-18T14:31:28;102106.06;;;-1.24;73.22
67109;BME280;54027;50.786;7.058;2022-12-18T14:33:55;102101.88;;;-1.24;72.75
67109;BME280;54027;50.786;7.058;2022-12-18T14:36:24;102097.56;;;-1.25;72.80
67109;BME280;54027;50.786;7.058;2022-12-18T14:38:57;102087.41;;;-1.25;72.74
67109;BME280;54027;50.786;7.058;2022-12-18T14:41:24;102092.41;;;-1.26;73.35
67109;BME280;54027;50.786;7.058;2022-12-18T14:43:52;102083.69;;;-1.31;73.25
67109;BME280;54027;50.786;7.058;2022-12-18T14:46:36;102079.25;;;-1.34;73.24
67109;BME280;54027;50.786;7.058;2022-12-18T14:49:18;102087.50;;;-1.38;73.06